Latest Weather Observations for Rockhampton

IDQ60801

Issued at 6:05 pm EST Sunday 26 October 2014 (issued every 30 minutes, with the page automatically refreshed every 10 minutes)

About weather observations | Map of weather stations | Latest weather observations for QLD | Other Formats
Station Details ID: 039083 Name: ROCKHAMPTON AERO Lat: -23.38 Lon: 150.48 Height: 10.4 m
Data from the previous 72 hours. | See also: Recent months at Rockhampton
Date/Time
EST
Temp
°C
App
Temp
°C
Dew
Point
Rel
Hum
%
Delta-T
°C
Wind Press
QNH
hPa
Press
MSL
hPa
Rain
since 9 am
mm
Dir
 
Spd
km/h
Gust
km/h
Spd
kts
Gust
kts
26/06:00pm 26.1 24.9 17.5 59 5.4 N 20 32 11 17 1013.4 1013.3 0.0
26/05:30pm 28.1 26.8 16.7 50 7.1 N 19 24 10 13 1012.9 - 0.0
26/05:00pm 30.1 28.7 16.9 45 8.3 N 20 26 11 14 1012.6 - 0.0
26/04:30pm 31.7 30.2 16.8 40 9.4 N 20 26 11 14 1012.4 - 0.0
26/04:00pm 33.0 31.5 16.4 37 10.5 N 19 20 10 11 1012.2 - 0.0
26/03:30pm 33.1 33.4 15.9 35 10.8 E 9 20 5 11 1012.2 - 0.0
26/03:00pm 33.7 32.7 12.2 27 12.8 WSW 9 13 5 7 1012.5 1012.4 0.0
26/02:30pm 33.5 32.8 13.1 29 12.3 NNW 9 15 5 8 1012.9 - 0.0
26/02:00pm 33.6 33.1 12.7 28 12.5 N 7 15 4 8 1013.3 - 0.0
26/01:30pm 33.0 32.3 13.2 30 11.9 NNW 9 15 5 8 1014.0 - 0.0
26/01:00pm 32.1 31.3 13.0 31 11.4 NW 9 15 5 8 1014.6 - 0.0
26/12:30pm 31.0 30.7 13.3 34 10.6 N 7 15 4 8 1015.2 - 0.0
26/12:00pm 30.7 29.5 12.8 33 10.6 NNE 11 20 6 11 1016.0 1015.9 0.0
26/11:30am 29.9 29.3 13.5 36 9.8 E 9 15 5 8 1016.4 - 0.0
26/11:00am 28.8 28.5 14.3 41 8.7 NE 9 20 5 11 1017.0 - 0.0
26/10:30am 27.7 27.9 14.8 45 7.8 ESE 7 13 4 7 1017.4 - 0.0
26/10:00am 27.1 26.3 15.2 48 7.2 N 13 20 7 11 1018.0 - 0.0
26/09:30am 26.4 26.3 14.9 49 6.9 NNW 9 19 5 10 1018.4 - 0.0
26/09:00am 25.1 24.5 15.7 56 5.7 N 13 19 7 10 1018.6 1018.5 0.0
26/08:30am 24.3 24.5 16.8 63 4.6 NNW 11 19 6 10 1018.7 - 0.0
26/08:00am 23.6 23.4 16.6 65 4.3 N 13 22 7 12 1018.7 - 0.0
26/07:30am 21.8 23.2 16.5 72 3.2 W 4 7 2 4 1018.6 - 0.0
26/07:00am 19.9 20.8 16.2 79 2.2 SSW 6 7 3 4 1018.5 - 0.0
26/06:30am 18.5 19.4 16.0 85 1.5 S 6 7 3 4 1018.4 - 0.0
26/06:00am 17.2 18.3 15.5 90 1.0 SSW 4 7 2 4 1018.3 1018.2 0.0
26/05:30am 16.3 18.0 15.1 93 0.7 CALM 0 0 0 0 1017.9 - 0.0
26/05:00am 16.7 18.4 15.3 91 0.8 CALM 0 0 0 0 1017.5 - 0.0
26/04:34am 16.4 18.2 15.5 94 0.5 CALM 0 0 0 0 1017.3 - 0.0
26/04:30am 16.4 18.2 15.4 94 0.6 CALM 0 0 0 0 1017.3 - 0.0
26/04:16am 16.4 18.2 15.4 94 0.6 CALM 0 0 0 0 1017.3 - 0.0
26/04:00am 16.5 18.2 15.3 93 0.7 CALM 0 0 0 0 1017.2 - 0.0
26/03:30am 17.1 17.8 15.6 91 0.9 SSW 6 7 3 4 1017.0 - 0.0
26/03:00am 17.2 18.0 15.8 91 0.8 WSW 6 7 3 4 1016.8 1016.7 0.0
26/02:30am 17.5 18.4 16.1 91 0.8 NW 6 7 3 4 1016.8 - 0.0
26/02:00am 18.0 18.7 15.6 86 1.4 ENE 6 7 3 4 1016.9 - 0.0
26/01:30am 18.3 18.9 15.8 85 1.5 NE 7 9 4 5 1017.2 - 0.0
26/01:00am 18.5 19.4 16.0 85 1.5 NNE 6 7 3 4 1017.6 - 0.0
26/12:30am 18.3 19.3 15.4 83 1.7 N 4 6 2 3 1018.0 - 0.0
26/12:00am 19.2 19.7 15.6 79 2.1 NNW 7 9 4 5 1018.3 1018.2 0.0
 
Date/Time
EST
Temp
°C
App
Temp
°C
Dew
Point
Rel
Hum
%
Delta-T
°C
Wind Press
QNH
hPa
Press
MSL
hPa
Rain
since 9 am
mm
Dir
 
Spd
km/h
Gust
km/h
Spd
kts
Gust
kts
25/11:30pm 19.3 19.6 15.9 81 2.0 N 9 11 5 6 1018.5 - 0.0
25/11:00pm 20.2 20.3 15.6 75 2.7 N 9 11 5 6 1018.7 - 0.0
25/10:30pm 20.3 20.5 15.8 75 2.7 N 9 13 5 7 1019.0 - 0.0
25/10:00pm 20.7 20.5 15.7 73 3.0 N 11 17 6 9 1019.0 - 0.0
25/09:30pm 21.1 20.1 15.5 70 3.3 N 15 20 8 11 1019.0 - 0.0
25/09:00pm 21.4 20.7 15.5 69 3.5 N 13 17 7 9 1019.0 1018.9 0.0
25/08:30pm 21.7 22.0 15.1 66 3.9 NNW 7 9 4 5 1018.7 - 0.0
25/08:00pm 21.3 21.3 15.2 68 3.6 NNE 9 13 5 7 1018.4 - 0.0
25/07:30pm 22.1 21.1 14.6 62 4.4 N 13 17 7 9 1018.1 - 0.0
25/07:00pm 22.5 21.0 14.1 59 4.9 NNE 15 19 8 10 1017.4 - 0.0
25/06:30pm 23.7 22.3 13.3 52 6.0 N 13 19 7 10 1017.0 - 0.0
25/06:00pm 24.6 23.3 14.7 54 5.9 N 15 19 8 10 1016.8 1016.7 0.0
25/05:30pm 26.2 24.9 14.9 49 6.8 N 15 19 8 10 1016.4 - 0.0
25/05:00pm 27.5 25.1 14.3 44 7.9 NNE 20 24 11 13 1016.0 - 0.0
25/04:30pm 28.7 25.7 13.8 40 8.9 NNE 22 32 12 17 1015.8 - 0.0
25/04:00pm 30.1 27.5 11.9 32 10.6 N 17 24 9 13 1015.9 - 0.0
25/03:30pm 29.8 28.5 12.6 34 10.1 E 11 22 6 12 1015.8 - 0.0
25/03:00pm 30.4 29.6 14.0 36 9.9 E 11 15 6 8 1015.9 1015.8 0.0
25/02:30pm 30.1 29.1 14.6 39 9.4 E 13 20 7 11 1016.2 - 0.0
25/02:00pm 30.4 29.1 14.8 38 9.5 ESE 15 24 8 13 1016.6 - 0.0
25/01:30pm 30.0 29.4 14.7 39 9.3 S 11 19 6 10 1017.0 - 0.0
25/01:00pm 29.5 29.7 14.7 40 9.0 W 7 13 4 7 1017.5 - 0.0
25/12:30pm 29.1 28.8 14.3 40 8.9 E 9 15 5 8 1018.0 - 0.0
25/12:00pm 28.5 28.7 14.6 42 8.4 ENE 7 17 4 9 1018.7 1018.6 0.0
25/11:30am 27.6 27.0 14.6 45 7.8 W 11 15 6 8 1019.3 - 0.0
25/11:00am 26.7 26.4 14.5 47 7.3 N 9 19 5 10 1020.0 - 0.0
25/10:30am 25.9 26.3 14.7 50 6.7 NW 6 11 3 6 1020.6 - 0.0
25/10:00am 25.5 25.8 15.0 52 6.3 N 7 17 4 9 1021.2 - 0.0
25/09:30am 24.6 24.5 14.9 54 5.8 NE 9 15 5 8 1021.4 - 0.0
25/09:00am 24.6 24.8 15.7 57 5.4 SSW 9 15 5 8 1021.5 1021.4 0.0
25/08:30am 23.5 23.9 16.2 63 4.4 S 9 13 5 7 1021.6 - 0.0
25/08:00am 22.5 23.7 16.8 70 3.5 SE 6 9 3 5 1021.5 - 0.0
25/07:30am 21.4 22.3 16.6 74 2.9 S 7 9 4 5 1021.4 - 0.0
25/07:00am 19.5 20.6 16.7 84 1.7 S 6 7 3 4 1021.2 - 0.0
25/06:30am 17.8 19.2 16.3 91 0.9 S 4 7 2 4 1020.8 - 0.0
25/06:24am 17.1 18.0 16.1 94 0.6 SW 6 7 3 4 1020.7 - 0.0
25/06:09am 16.8 18.8 15.9 94 0.5 CALM 0 0 0 0 1020.4 - 0.0
25/06:00am 16.4 18.3 15.7 96 0.4 CALM 0 6 0 3 1020.3 1020.2 0.0
25/05:52am 16.1 17.8 15.2 94 0.5 CALM 0 0 0 0 1020.1 - 0.0
25/05:30am 15.5 17.1 14.8 96 0.4 CALM 0 0 0 0 1019.8 - 0.0
25/05:00am 15.7 17.4 15.2 97 0.3 CALM 0 0 0 0 1019.7 - 0.0
25/04:30am 15.7 17.3 14.8 94 0.5 CALM 0 0 0 0 1019.6 - 0.0
25/04:00am 15.5 17.1 14.8 96 0.4 CALM 0 0 0 0 1019.6 - 0.0
25/03:30am 16.2 17.9 15.3 94 0.5 CALM 0 0 0 0 1019.4 - 0.0
25/03:00am 16.6 18.4 15.6 94 0.6 CALM 0 0 0 0 1019.6 1019.5 0.0
25/02:30am 16.6 17.5 15.2 91 0.8 SW 4 6 2 3 1019.5 - 0.0
25/02:00am 16.8 17.8 15.4 91 0.8 SW 4 6 2 3 1019.6 - 0.0
25/01:30am 17.3 19.1 15.6 90 1.0 CALM 0 0 0 0 1020.0 - 0.0
25/01:00am 17.2 19.0 15.5 90 1.0 CALM 0 0 0 0 1020.3 - 0.0
25/12:30am 16.8 18.5 15.2 90 0.9 CALM 0 0 0 0 1020.6 - 0.0
25/12:00am 17.5 19.3 15.6 89 1.1 CALM 0 0 0 0 1021.1 1021.0 0.0
 
Date/Time
EST
Temp
°C
App
Temp
°C
Dew
Point
Rel
Hum
%
Delta-T
°C
Wind Press
QNH
hPa
Press
MSL
hPa
Rain
since 9 am
mm
Dir
 
Spd
km/h
Gust
km/h
Spd
kts
Gust
kts
24/11:30pm 18.0 18.7 15.6 86 1.4 SW 6 7 3 4 1021.2 - 0.0
24/11:00pm 18.2 19.5 15.1 82 1.8 WSW 2 7 1 4 1021.4 - 0.0
24/10:30pm 18.7 20.4 15.1 79 2.1 CALM 0 0 0 0 1021.4 - 0.0
24/10:00pm 19.4 19.9 15.1 76 2.5 SW 6 7 3 4 1021.6 - 0.0
24/09:30pm 19.5 20.0 14.9 75 2.7 W 6 7 3 4 1021.7 - 0.0
24/09:00pm 20.2 20.9 15.5 74 2.8 N 6 6 3 3 1021.4 1021.3 0.0
24/08:30pm 20.4 20.9 14.9 70 3.2 NE 6 7 3 4 1021.1 - 0.0
24/08:00pm 20.2 20.4 14.3 69 3.4 N 6 7 3 4 1020.8 - 0.0
24/07:30pm 20.5 20.0 13.7 65 3.9 NNE 9 9 5 5 1020.3 - 0.0
24/07:00pm 21.8 21.9 11.5 52 5.7 NE 2 6 1 3 1019.8 - 0.0
24/06:30pm 23.1 22.0 10.6 45 6.9 ENE 7 11 4 6 1019.4 - 0.0
24/06:00pm 24.1 21.2 8.3 36 8.4 E 13 20 7 11 1019.0 1018.9 0.0
24/05:30pm 25.3 21.8 7.2 31 9.5 E 15 20 8 11 1018.4 - 0.0
24/05:00pm 26.3 22.8 7.2 29 10.1 E 15 24 8 13 1017.9 - 0.0
24/04:30pm 27.1 22.9 5.9 26 11.0 E 17 24 9 13 1017.7 - 0.0
24/04:00pm 27.3 22.2 4.0 22 11.7 E 20 32 11 17 1017.7 - 0.0
24/03:30pm 27.6 22.5 2.9 20 12.2 E 19 30 10 16 1017.9 - 0.0
24/03:00pm 28.5 24.7 8.9 29 10.8 ENE 19 28 10 15 1018.2 1018.1 0.0
24/02:30pm 28.2 24.8 10.7 33 9.9 E 19 32 10 17 1018.4 - 0.0
24/02:00pm 28.3 25.4 11.1 34 9.8 ENE 17 32 9 17 1018.8 - 0.0
24/01:30pm 28.5 25.4 10.4 32 10.2 NE 17 28 9 15 1019.2 - 0.0
24/01:00pm 28.1 25.1 10.5 33 9.9 ESE 17 28 9 15 1019.4 - 0.0
24/12:30pm 27.7 25.9 10.7 34 9.6 NE 11 22 6 12 1019.8 - 0.0
24/12:00pm 28.0 24.8 9.9 32 10.1 E 17 24 9 13 1020.3 1020.2 0.0
24/11:30am 27.3 24.4 11.1 36 9.2 E 17 20 9 11 1020.6 - 0.0
24/11:00am 28.0 26.9 13.2 40 8.7 E 11 24 6 13 1020.8 - 0.0
24/10:30am 26.5 25.4 14.2 46 7.3 ESE 13 19 7 10 1021.0 - 0.0
24/10:00am 26.0 25.3 14.4 48 6.9 SE 11 19 6 10 1021.2 - 0.0
24/09:30am 24.6 23.4 14.1 52 6.2 ENE 13 17 7 9 1021.5 - 0.0
24/09:00am 23.9 23.7 14.8 56 5.4 E 9 17 5 9 1021.5 1021.4 0.0
24/08:30am 22.8 21.9 14.8 60 4.7 SE 13 17 7 9 1021.5 - 0.0
24/08:00am 22.0 21.2 15.1 65 4.1 SE 13 17 7 9 1021.3 - 0.0
24/07:30am 20.9 20.0 14.9 68 3.5 ESE 13 19 7 10 1021.0 - 0.0
24/07:00am 19.7 18.7 14.5 72 3.0 SE 13 20 7 11 1021.2 - 0.0
24/06:30am 18.6 17.9 14.4 76 2.4 ESE 11 17 6 9 1021.0 - 0.0
24/06:00am 17.5 17.6 14.4 82 1.8 SSE 7 9 4 5 1020.8 1020.7 0.0
24/05:30am 17.0 16.6 14.2 83 1.6 SSE 9 11 5 6 1020.4 - 0.0
24/05:00am 16.6 18.0 14.5 87 1.2 CALM 0 4 0 2 1019.8 - 0.0
24/04:30am 16.9 16.5 14.1 83 1.6 SSE 9 11 5 6 1019.7 - 0.0
24/04:00am 16.9 16.9 14.1 83 1.6 SSE 7 11 4 6 1019.5 - 0.0
24/03:30am 16.4 16.9 14.1 86 1.3 SE 4 7 2 4 1019.3 - 0.0
24/03:00am 15.9 16.0 13.8 87 1.2 S 6 7 3 4 1019.5 1019.4 0.0
24/02:30am 15.6 15.6 13.6 88 1.1 SSW 6 9 3 5 1019.5 - 0.0
24/02:00am 17.2 17.3 14.0 81 1.8 SSE 6 9 3 5 1019.7 - 0.0
24/01:30am 15.5 16.9 14.3 92 0.7 CALM 0 0 0 0 1020.0 - 0.0
24/01:00am 15.9 17.2 14.1 89 1.0 CALM 0 0 0 0 1020.7 - 0.0
24/12:30am 17.0 17.3 14.6 86 1.4 SSE 6 9 3 5 1020.7 - 0.0
24/12:00am 17.2 18.0 14.8 86 1.4 SW 4 7 2 4 1020.8 1020.7 0.0
 
Date/Time
EST
Temp
°C
App
Temp
°C
Dew
Point
Rel
Hum
%
Delta-T
°C
Wind Press
QNH
hPa
Press
MSL
hPa
Rain
since 9 am
mm
Dir
 
Spd
km/h
Gust
km/h
Spd
kts
Gust
kts
23/11:30pm 17.1 18.5 14.5 85 1.5 CALM 0 0 0 0 1020.9 - 0.0
23/11:00pm 18.4 19.5 14.6 78 2.2 S 2 6 1 3 1021.1 - 0.0
23/10:30pm 17.9 19.4 14.6 81 1.9 CALM 0 0 0 0 1021.0 - 0.0
23/10:00pm 18.6 20.0 14.4 76 2.4 CALM 0 0 0 0 1021.2 - 0.0
23/09:30pm 19.9 20.2 14.6 71 3.1 SSE 6 9 3 5 1021.1 - 0.0
23/09:00pm 20.3 20.3 14.3 68 3.5 SE 7 9 4 5 1020.8 1020.7 0.0
23/08:30pm 20.2 20.1 13.9 67 3.6 SE 7 11 4 6 1020.2 - 0.0
23/08:00pm 20.8 20.9 13.9 64 4.0 ESE 6 11 3 6 1019.8 - 0.0
23/07:30pm 21.2 20.5 13.3 60 4.5 ESE 9 15 5 8 1019.4 - 0.0
23/07:00pm 21.9 19.8 11.2 50 5.9 E 13 19 7 10 1019.1 - 0.0
23/06:30pm 22.0 21.0 12.2 53 5.5 NE 9 13 5 7 1018.5 - 0.0

Other Formats:

Comma delimited format used in spreadsheet applications
http://www.bom.gov.au/fwo/IDQ60801/IDQ60801.94374.axf

JavaScript Object Notation format (JSON) in row-major order
http://www.bom.gov.au/fwo/IDQ60801/IDQ60801.94374.json